createdAt,value
2022-09-03T00:03:29.011Z,2.00
2022-09-03T00:08:40.865Z,1.80
2022-09-03T00:13:52.452Z,1.60
2022-09-03T00:19:02.945Z,1.70
2022-09-03T00:24:15.220Z,1.80
2022-09-03T00:29:26.715Z,2.00
2022-09-03T00:34:39.353Z,2.00
2022-09-03T00:39:46.269Z,1.40
2022-09-03T00:45:09.419Z,1.90
2022-09-03T00:50:26.105Z,1.70
2022-09-03T00:55:47.636Z,1.60
2022-09-03T01:00:55.032Z,2.00
2022-09-03T01:06:15.673Z,2.30
2022-09-03T01:11:33.542Z,2.10
2022-09-03T01:16:47.927Z,2.30
2022-09-03T01:22:20.975Z,2.00
2022-09-03T01:27:40.134Z,1.80
2022-09-03T01:32:55.350Z,1.90
2022-09-03T01:38:15.252Z,2.50
2022-09-03T01:43:44.696Z,2.20
2022-09-03T01:49:02.998Z,2.40
2022-09-03T01:54:36.682Z,2.00
2022-09-03T01:59:49.559Z,2.20
2022-09-03T02:05:08.008Z,2.60
2022-09-03T02:10:17.713Z,2.20
2022-09-03T02:15:27.025Z,2.30
2022-09-03T02:20:34.289Z,2.30
2022-09-03T02:25:46.329Z,2.50
2022-09-03T02:30:55.469Z,3.20
2022-09-03T02:36:02.951Z,2.50
2022-09-03T02:41:09.899Z,2.40
2022-09-03T02:46:22.517Z,2.60
2022-09-03T02:51:33.106Z,2.70
2022-09-03T02:56:40.102Z,2.90
2022-09-03T03:01:47.012Z,2.30
2022-09-03T03:06:53.944Z,2.40
2022-09-03T03:12:00.736Z,3.90
2022-09-03T03:17:07.972Z,2.50
2022-09-03T03:22:14.712Z,2.30
2022-09-03T03:27:21.814Z,2.40
2022-09-03T03:32:29.312Z,2.70
2022-09-03T03:37:36.849Z,2.50
2022-09-03T03:42:44.040Z,2.30
2022-09-03T03:47:50.955Z,2.50
2022-09-03T03:53:00.116Z,2.50
2022-09-03T03:58:07.007Z,2.60
2022-09-03T04:03:13.854Z,2.40
2022-09-03T04:08:20.644Z,2.60
2022-09-03T04:13:29.730Z,2.60
2022-09-03T04:18:37.694Z,2.50
2022-09-03T04:23:46.314Z,3.40
2022-09-03T04:28:53.416Z,3.90
2022-09-03T04:34:00.661Z,3.00
2022-09-03T04:39:07.566Z,3.10
2022-09-03T04:44:14.297Z,3.70
2022-09-03T04:49:21.710Z,3.40
2022-09-03T04:54:29.635Z,3.20
2022-09-03T04:59:37.129Z,2.60
2022-09-03T05:04:43.911Z,3.10
2022-09-03T05:09:50.663Z,3.60
2022-09-03T05:14:57.420Z,3.40
2022-09-03T05:20:04.727Z,3.70
2022-09-03T05:25:12.116Z,2.40
2022-09-03T05:30:19.479Z,2.80
2022-09-03T05:35:30.154Z,2.90
2022-09-03T05:40:37.252Z,3.20
2022-09-03T05:45:44.138Z,3.80
2022-09-03T05:50:51.096Z,3.20
2022-09-03T05:56:01.652Z,3.70
2022-09-03T06:01:15.438Z,3.40
2022-09-03T06:06:25.951Z,2.60
2022-09-03T06:11:34.864Z,3.00
2022-09-03T06:16:45.518Z,3.60
2022-09-03T06:21:52.415Z,3.20
2022-09-03T06:26:59.529Z,3.10
2022-09-03T06:32:07.143Z,3.30
2022-09-03T06:37:13.995Z,3.50
2022-09-03T06:42:22.949Z,2.70
2022-09-03T06:47:32.767Z,3.10
2022-09-03T06:52:40.991Z,2.70
2022-09-03T06:57:47.727Z,3.20
2022-09-03T07:03:00.648Z,3.30
2022-09-03T07:08:08.066Z,2.80
2022-09-03T07:13:15.026Z,3.20
2022-09-03T07:18:21.966Z,2.70
2022-09-03T07:23:38.188Z,2.80
2022-09-03T07:28:47.139Z,2.80
2022-09-03T07:33:55.658Z,2.90
2022-09-03T07:39:04.003Z,3.60
2022-09-03T07:44:11.015Z,3.00
2022-09-03T07:49:18.176Z,3.20
2022-09-03T07:54:27.499Z,4.50
2022-09-03T07:59:34.556Z,3.70
2022-09-03T08:04:41.419Z,3.30
2022-09-03T08:09:52.424Z,3.90
2022-09-03T08:15:01.985Z,3.30
2022-09-03T08:20:10.627Z,3.50
2022-09-03T08:25:17.878Z,5.20
2022-09-03T08:30:25.423Z,6.30
2022-09-03T08:35:34.885Z,6.10
2022-09-03T08:40:43.427Z,4.50
2022-09-03T08:45:50.706Z,4.20
2022-09-03T08:51:04.736Z,4.00
2022-09-03T08:56:20.831Z,4.20
2022-09-03T09:01:55.227Z,4.50
2022-09-03T09:07:12.275Z,3.70
2022-09-03T09:12:37.586Z,4.30
2022-09-03T09:18:06.231Z,4.50
2022-09-03T09:23:17.268Z,4.50
2022-09-03T09:28:26.615Z,3.70
2022-09-03T09:33:35.544Z,3.80
2022-09-03T09:38:43.354Z,3.50
2022-09-03T09:44:01.706Z,3.50
2022-09-03T09:49:31.360Z,4.00
2022-09-03T09:54:38.640Z,3.70
2022-09-03T09:59:45.943Z,2.90
2022-09-03T10:04:53.063Z,3.30
2022-09-03T10:10:09.260Z,5.00
2022-09-03T10:15:25.095Z,3.80
2022-09-03T10:20:42.197Z,4.20
2022-09-03T10:26:04.729Z,3.60
2022-09-03T10:31:32.049Z,3.70
2022-09-03T10:36:45.551Z,3.80
2022-09-03T10:42:06.757Z,3.40
2022-09-03T10:47:30.287Z,4.00
2022-09-03T10:52:50.068Z,4.00
2022-09-03T10:58:12.402Z,4.90
2022-09-03T11:03:45.734Z,5.60
2022-09-03T11:09:05.813Z,3.60
2022-09-03T11:14:19.135Z,4.60
2022-09-03T11:19:34.263Z,4.40
2022-09-03T11:24:42.930Z,3.30
2022-09-03T11:29:55.407Z,4.30
2022-09-03T11:35:19.394Z,2.70
2022-09-03T11:40:38.114Z,4.30
2022-09-03T11:45:45.372Z,3.10
2022-09-03T11:50:58.642Z,3.90
2022-09-03T11:56:20.235Z,2.90
2022-09-03T12:01:30.084Z,3.00
2022-09-03T12:12:10.826Z,3.10
2022-09-03T12:17:25.085Z,3.10
2022-09-03T12:22:39.572Z,2.40
2022-09-03T12:27:49.458Z,2.80
2022-09-03T12:33:06.888Z,2.70
2022-09-03T12:38:24.157Z,2.90
2022-09-03T12:43:41.147Z,2.60
2022-09-03T12:54:32.468Z,2.70
2022-09-03T12:59:41.019Z,2.50
2022-09-03T13:04:48.671Z,2.70
2022-09-03T13:10:04.760Z,2.70
2022-09-03T13:15:22.274Z,2.30
2022-09-03T13:20:39.499Z,4.10
2022-09-03T13:26:05.335Z,2.70
2022-09-03T13:31:28.346Z,5.60
2022-09-03T13:36:44.664Z,2.50
2022-09-03T13:41:57.383Z,2.80
2022-09-03T13:47:10.666Z,2.40
2022-09-03T13:52:59.398Z,2.20
2022-09-03T13:58:17.681Z,2.30
2022-09-03T14:03:35.020Z,2.50
2022-09-03T14:08:58.918Z,2.90
2022-09-03T14:14:20.701Z,2.20
2022-09-03T14:19:40.371Z,2.40
2022-09-03T14:24:53.470Z,2.70
2022-09-03T14:30:05.149Z,3.00
2022-09-03T14:35:24.589Z,2.70
2022-09-03T14:40:41.525Z,2.80
2022-09-03T14:46:05.948Z,2.90
2022-09-03T14:51:24.515Z,2.50
2022-09-03T14:56:44.354Z,2.50
2022-09-03T15:02:08.424Z,2.60
2022-09-03T15:07:27.864Z,3.60
2022-09-03T15:12:41.261Z,2.80
2022-09-03T15:18:02.755Z,2.20
2022-09-03T15:23:27.112Z,2.70
2022-09-03T15:28:45.612Z,2.80
2022-09-03T15:34:01.086Z,2.70
2022-09-03T15:39:13.588Z,2.30
2022-09-03T15:44:21.683Z,2.80
2022-09-03T15:49:45.623Z,2.40
2022-09-03T15:54:59.871Z,2.50
2022-09-03T16:00:12.863Z,2.80
2022-09-03T16:05:28.978Z,2.70
2022-09-03T16:10:51.663Z,2.50
2022-09-03T16:16:05.340Z,2.50
2022-09-03T16:21:21.683Z,2.90
2022-09-03T16:26:33.618Z,2.50
2022-09-03T16:31:53.501Z,2.70
2022-09-03T16:37:15.843Z,3.20
2022-09-03T16:42:30.447Z,3.40
2022-09-03T16:47:49.668Z,3.20
2022-09-03T16:53:11.452Z,3.20
2022-09-03T16:58:26.915Z,3.30
2022-09-03T17:04:09.130Z,3.50
2022-09-03T17:09:33.801Z,3.30
2022-09-03T17:15:07.708Z,3.30
2022-09-03T17:20:21.134Z,4.10
2022-09-03T17:25:35.780Z,3.50
2022-09-03T17:30:50.267Z,3.70
2022-09-03T17:36:07.587Z,3.30
2022-09-03T17:41:32.351Z,4.50
2022-09-03T17:47:03.019Z,3.90
2022-09-03T17:52:27.341Z,3.90
2022-09-03T17:57:41.576Z,4.00
2022-09-03T18:02:57.253Z,4.00
2022-09-03T18:08:10.336Z,4.50
2022-09-03T18:13:26.197Z,3.90
2022-09-03T18:18:35.571Z,4.70
2022-09-03T18:24:08.776Z,4.40
2022-09-03T18:29:39.162Z,4.30
2022-09-03T18:35:05.173Z,4.60
2022-09-03T18:40:41.845Z,4.90
2022-09-03T18:47:47.444Z,5.20
2022-09-03T18:52:08.375Z,5.00
2022-09-03T18:57:40.427Z,5.00
2022-09-03T19:03:20.081Z,5.40
2022-09-03T19:08:51.104Z,6.20
2022-09-03T19:19:57.878Z,5.90
2022-09-03T19:25:31.190Z,6.30
2022-09-03T19:31:21.813Z,5.90
2022-09-03T19:36:56.110Z,7.00
2022-09-03T19:42:28.900Z,5.60
2022-09-03T19:48:05.176Z,6.70
2022-09-03T19:53:32.589Z,5.70
2022-09-03T19:59:00.891Z,6.20
2022-09-03T20:04:33.028Z,5.90
2022-09-03T20:10:01.286Z,6.30
2022-09-03T20:15:09.951Z,5.70
2022-09-03T20:20:25.506Z,6.30
2022-09-03T20:25:43.062Z,6.60
2022-09-03T20:30:57.268Z,6.90
2022-09-03T20:36:15.032Z,7.10
2022-09-03T20:41:29.423Z,7.90
2022-09-03T20:46:48.075Z,6.90
2022-09-03T20:52:06.122Z,7.60
2022-09-03T20:57:33.445Z,7.50
2022-09-03T21:03:08.528Z,7.80
2022-09-03T21:08:39.572Z,7.40
2022-09-03T21:13:55.232Z,7.60
2022-09-03T21:19:12.600Z,6.90
2022-09-03T21:24:22.120Z,6.90
2022-09-03T21:29:33.109Z,6.50
2022-09-03T21:34:45.989Z,7.30
2022-09-03T21:39:56.145Z,7.20
2022-09-03T21:45:08.051Z,8.40
2022-09-03T21:50:21.203Z,8.30
2022-09-03T21:55:43.151Z,9.30
2022-09-03T22:00:56.061Z,9.00
2022-09-03T22:06:08.791Z,9.70
2022-09-03T22:16:30.396Z,9.60
2022-09-03T22:21:44.523Z,10.10
2022-09-03T22:26:56.933Z,11.00
2022-09-03T22:32:13.204Z,10.20
2022-09-03T22:37:29.122Z,9.50
2022-09-03T22:42:51.265Z,9.60
2022-09-03T22:48:12.097Z,8.70
2022-09-03T22:58:35.803Z,9.30
2022-09-03T23:03:51.751Z,8.50
2022-09-03T23:09:04.038Z,8.40
2022-09-03T23:14:14.187Z,8.70
2022-09-03T23:19:30.568Z,9.00
2022-09-03T23:24:41.797Z,9.20
2022-09-03T23:29:52.951Z,8.60
2022-09-03T23:35:01.441Z,8.20
2022-09-03T23:40:28.182Z,10.50
2022-09-03T23:45:46.089Z,8.70
2022-09-03T23:51:04.074Z,8.00
2022-09-03T23:56:38.183Z,8.30
